Terminal Aerodrome Forecast
Issued by NWS Sterling, VA

Current Version | Previous Version | Graphics & Text | Print | Product List | Glossary On
Versions: 1 2 3 4 5 6 7 8 9 10 11 12 13 14 15 16 17
000
FTUS41 KLWX 021737
TAFMRB
TAF
KMRB 021737Z 0218/0318 32005KT P6SM VCTS SCT050CB
     FM021900 31005KT P6SM VCTS BKN050CB
      TEMPO 0219/0221 32010G20KT 3SM -TSRA BKN035CB
     FM022200 30005KT P6SM BKN060
     FM022300 29004KT P6SM SCT060
     FM030900 30004KT 5SM BR FEW250
     FM031200 VRB03KT 6SM BR FEW070=

USA.gov is the U.S. government's official web portal to all federal, state and local government web resources and services.